sensor_id;sensor_type;location;lat;lon;timestamp;temperature;humidity
67141;DHT22;54058;52.010;5.546;2023-04-10T00:02:25;10.20;65.90
67141;DHT22;54058;52.010;5.546;2023-04-10T00:04:51;10.20;65.80
67141;DHT22;54058;52.010;5.546;2023-04-10T00:07:16;10.20;65.80
67141;DHT22;54058;52.010;5.546;2023-04-10T00:09:42;10.20;65.60
67141;DHT22;54058;52.010;5.546;2023-04-10T00:12:08;10.20;65.60
67141;DHT22;54058;52.010;5.546;2023-04-10T00:14:35;10.20;65.80
67141;DHT22;54058;52.010;5.546;2023-04-10T00:17:01;10.20;66.90
67141;DHT22;54058;52.010;5.546;2023-04-10T00:19:26;10.20;65.60
67141;DHT22;54058;52.010;5.546;2023-04-10T00:21:52;10.20;65.60
67141;DHT22;54058;52.010;5.546;2023-04-10T00:24:17;10.20;65.60
67141;DHT22;54058;52.010;5.546;2023-04-10T00:26:43;10.20;65.50
67141;DHT22;54058;52.010;5.546;2023-04-10T00:29:09;10.20;65.50
67141;DHT22;54058;52.010;5.546;2023-04-10T00:31:34;10.20;65.50
67141;DHT22;54058;52.010;5.546;2023-04-10T00:34:00;10.20;65.50
67141;DHT22;54058;52.010;5.546;2023-04-10T00:36:26;10.30;65.60
67141;DHT22;54058;52.010;5.546;2023-04-10T00:38:52;10.20;65.60
67141;DHT22;54058;52.010;5.546;2023-04-10T00:41:18;10.30;65.60
67141;DHT22;54058;52.010;5.546;2023-04-10T00:43:43;10.30;65.60
67141;DHT22;54058;52.010;5.546;2023-04-10T00:46:09;10.30;65.70
67141;DHT22;54058;52.010;5.546;2023-04-10T00:48:35;10.30;65.70
67141;DHT22;54058;52.010;5.546;2023-04-10T00:51:01;10.30;65.70
67141;DHT22;54058;52.010;5.546;2023-04-10T00:53:28;10.30;65.80
67141;DHT22;54058;52.010;5.546;2023-04-10T00:55:55;10.30;65.80
67141;DHT22;54058;52.010;5.546;2023-04-10T00:58:20;10.30;66.40
67141;DHT22;54058;52.010;5.546;2023-04-10T01:00:47;10.30;65.80
67141;DHT22;54058;52.010;5.546;2023-04-10T01:03:15;10.30;65.80
67141;DHT22;54058;52.010;5.546;2023-04-10T01:06:54;10.30;65.90
67141;DHT22;54058;52.010;5.546;2023-04-10T01:09:07;10.30;66.50
67141;DHT22;54058;52.010;5.546;2023-04-10T01:11:53;10.30;65.90
67141;DHT22;54058;52.010;5.546;2023-04-10T01:17:03;10.30;65.90
67141;DHT22;54058;52.010;5.546;2023-04-10T01:22:01;10.30;65.90
67141;DHT22;54058;52.010;5.546;2023-04-10T01:24:56;10.30;65.90
67141;DHT22;54058;52.010;5.546;2023-04-10T01:27:39;10.30;66.40
67141;DHT22;54058;52.010;5.546;2023-04-10T01:30:11;10.30;65.90
67141;DHT22;54058;52.010;5.546;2023-04-10T01:32:40;10.30;65.80
67141;DHT22;54058;52.010;5.546;2023-04-10T01:35:07;10.30;65.80
67141;DHT22;54058;52.010;5.546;2023-04-10T01:37:36;10.30;65.70
67141;DHT22;54058;52.010;5.546;2023-04-10T01:40:04;10.30;65.80
67141;DHT22;54058;52.010;5.546;2023-04-10T01:42:42;10.40;65.70
67141;DHT22;54058;52.010;5.546;2023-04-10T01:45:13;10.40;65.80
67141;DHT22;54058;52.010;5.546;2023-04-10T01:47:41;10.30;65.70
67141;DHT22;54058;52.010;5.546;2023-04-10T01:50:08;10.30;65.60
67141;DHT22;54058;52.010;5.546;2023-04-10T01:52:34;10.40;65.70
67141;DHT22;54058;52.010;5.546;2023-04-10T01:55:01;10.30;65.70
67141;DHT22;54058;52.010;5.546;2023-04-10T01:57:28;10.30;65.80
67141;DHT22;54058;52.010;5.546;2023-04-10T01:59:56;10.30;65.80
67141;DHT22;54058;52.010;5.546;2023-04-10T02:02:22;10.30;65.80
67141;DHT22;54058;52.010;5.546;2023-04-10T02:04:48;10.40;65.80
67141;DHT22;54058;52.010;5.546;2023-04-10T02:07:28;10.40;66.00
67141;DHT22;54058;52.010;5.546;2023-04-10T02:12:41;10.30;66.00
67141;DHT22;54058;52.010;5.546;2023-04-10T02:15:09;10.30;65.90
67141;DHT22;54058;52.010;5.546;2023-04-10T02:17:37;10.40;66.00
67141;DHT22;54058;52.010;5.546;2023-04-10T02:20:04;10.30;65.90
67141;DHT22;54058;52.010;5.546;2023-04-10T02:22:31;10.30;66.60
67141;DHT22;54058;52.010;5.546;2023-04-10T02:24:57;10.30;66.10
67141;DHT22;54058;52.010;5.546;2023-04-10T02:27:32;10.30;66.00
67141;DHT22;54058;52.010;5.546;2023-04-10T02:29:58;10.40;66.10
67141;DHT22;54058;52.010;5.546;2023-04-10T02:32:24;10.30;66.00
67141;DHT22;54058;52.010;5.546;2023-04-10T02:34:50;10.30;66.10
67141;DHT22;54058;52.010;5.546;2023-04-10T02:37:16;10.30;66.20
67141;DHT22;54058;52.010;5.546;2023-04-10T02:39:41;10.30;66.10
67141;DHT22;54058;52.010;5.546;2023-04-10T02:42:07;10.20;66.10
67141;DHT22;54058;52.010;5.546;2023-04-10T02:44:33;10.20;66.10
67141;DHT22;54058;52.010;5.546;2023-04-10T02:46:58;10.20;66.20
67141;DHT22;54058;52.010;5.546;2023-04-10T02:49:24;10.20;66.20
67141;DHT22;54058;52.010;5.546;2023-04-10T02:51:50;10.20;66.20
67141;DHT22;54058;52.010;5.546;2023-04-10T02:54:15;10.20;66.20
67141;DHT22;54058;52.010;5.546;2023-04-10T02:56:41;10.20;66.30
67141;DHT22;54058;52.010;5.546;2023-04-10T02:59:06;10.20;66.40
67141;DHT22;54058;52.010;5.546;2023-04-10T03:01:32;10.20;66.30
67141;DHT22;54058;52.010;5.546;2023-04-10T03:03:58;10.20;66.30
67141;DHT22;54058;52.010;5.546;2023-04-10T03:06:24;10.20;66.30
67141;DHT22;54058;52.010;5.546;2023-04-10T03:08:53;10.20;66.40
67141;DHT22;54058;52.010;5.546;2023-04-10T03:11:19;10.20;66.40
67141;DHT22;54058;52.010;5.546;2023-04-10T03:13:44;10.20;66.50
67141;DHT22;54058;52.010;5.546;2023-04-10T03:16:10;10.20;66.40
67141;DHT22;54058;52.010;5.546;2023-04-10T03:18:36;10.20;66.40
67141;DHT22;54058;52.010;5.546;2023-04-10T03:21:02;10.20;66.40
67141;DHT22;54058;52.010;5.546;2023-04-10T03:23:27;10.10;66.40
67141;DHT22;54058;52.010;5.546;2023-04-10T03:25:53;10.10;67.10
67141;DHT22;54058;52.010;5.546;2023-04-10T03:28:20;10.10;66.60
67141;DHT22;54058;52.010;5.546;2023-04-10T03:30:45;10.10;66.50
67141;DHT22;54058;52.010;5.546;2023-04-10T03:33:11;10.10;66.50
67141;DHT22;54058;52.010;5.546;2023-04-10T03:35:36;10.10;66.50
67141;DHT22;54058;52.010;5.546;2023-04-10T03:38:02;10.00;66.40
67141;DHT22;54058;52.010;5.546;2023-04-10T03:40:28;10.00;66.40
67141;DHT22;54058;52.010;5.546;2023-04-10T03:42:53;10.00;66.40
67141;DHT22;54058;52.010;5.546;2023-04-10T03:45:19;10.00;66.50
67141;DHT22;54058;52.010;5.546;2023-04-10T03:47:45;10.00;66.50
67141;DHT22;54058;52.010;5.546;2023-04-10T03:50:11;10.00;66.50
67141;DHT22;54058;52.010;5.546;2023-04-10T03:52:37;9.90;66.50
67141;DHT22;54058;52.010;5.546;2023-04-10T03:55:03;9.90;66.60
67141;DHT22;54058;52.010;5.546;2023-04-10T03:57:28;9.80;66.50
67141;DHT22;54058;52.010;5.546;2023-04-10T03:59:54;9.80;66.60
67141;DHT22;54058;52.010;5.546;2023-04-10T04:02:20;9.80;66.70
67141;DHT22;54058;52.010;5.546;2023-04-10T04:04:46;9.80;66.60
67141;DHT22;54058;52.010;5.546;2023-04-10T04:07:12;9.70;66.60
67141;DHT22;54058;52.010;5.546;2023-04-10T04:09:38;9.70;66.80
67141;DHT22;54058;52.010;5.546;2023-04-10T04:12:05;9.70;66.70
67141;DHT22;54058;52.010;5.546;2023-04-10T04:14:31;9.70;66.80
67141;DHT22;54058;52.010;5.546;2023-04-10T04:16:57;9.70;66.90
67141;DHT22;54058;52.010;5.546;2023-04-10T04:19:23;9.60;66.90
67141;DHT22;54058;52.010;5.546;2023-04-10T04:21:48;9.50;66.90
67141;DHT22;54058;52.010;5.546;2023-04-10T04:24:14;9.50;66.90
67141;DHT22;54058;52.010;5.546;2023-04-10T04:26:40;9.50;67.00
67141;DHT22;54058;52.010;5.546;2023-04-10T04:29:05;9.50;67.10
67141;DHT22;54058;52.010;5.546;2023-04-10T04:31:31;9.40;67.20
67141;DHT22;54058;52.010;5.546;2023-04-10T04:33:58;9.40;67.20
67141;DHT22;54058;52.010;5.546;2023-04-10T04:36:23;9.30;67.30
67141;DHT22;54058;52.010;5.546;2023-04-10T04:38:49;9.30;67.40
67141;DHT22;54058;52.010;5.546;2023-04-10T04:41:14;9.30;67.40
67141;DHT22;54058;52.010;5.546;2023-04-10T04:43:40;9.20;67.50
67141;DHT22;54058;52.010;5.546;2023-04-10T04:46:06;9.20;67.50
67141;DHT22;54058;52.010;5.546;2023-04-10T04:48:32;9.20;67.50
67141;DHT22;54058;52.010;5.546;2023-04-10T04:50:57;9.20;67.60
67141;DHT22;54058;52.010;5.546;2023-04-10T04:53:23;9.20;68.20
67141;DHT22;54058;52.010;5.546;2023-04-10T04:55:49;9.30;67.80
67141;DHT22;54058;52.010;5.546;2023-04-10T04:58:15;9.30;67.70
67141;DHT22;54058;52.010;5.546;2023-04-10T05:00:40;9.30;67.70
67141;DHT22;54058;52.010;5.546;2023-04-10T05:03:06;9.30;67.70
67141;DHT22;54058;52.010;5.546;2023-04-10T05:05:32;9.30;67.70
67141;DHT22;54058;52.010;5.546;2023-04-10T05:07:57;9.30;67.70
67141;DHT22;54058;52.010;5.546;2023-04-10T05:10:23;9.30;67.70
67141;DHT22;54058;52.010;5.546;2023-04-10T05:12:49;9.30;67.70
67141;DHT22;54058;52.010;5.546;2023-04-10T05:15:14;9.30;67.60
67141;DHT22;54058;52.010;5.546;2023-04-10T05:17:40;9.30;67.60
67141;DHT22;54058;52.010;5.546;2023-04-10T05:20:06;9.30;67.70
67141;DHT22;54058;52.010;5.546;2023-04-10T05:22:32;9.30;67.70
67141;DHT22;54058;52.010;5.546;2023-04-10T05:24:58;9.20;67.70
67141;DHT22;54058;52.010;5.546;2023-04-10T05:27:24;9.30;67.80
67141;DHT22;54058;52.010;5.546;2023-04-10T05:29:49;9.30;67.90
67141;DHT22;54058;52.010;5.546;2023-04-10T05:32:15;9.30;67.90
67141;DHT22;54058;52.010;5.546;2023-04-10T05:34:41;9.40;67.90
67141;DHT22;54058;52.010;5.546;2023-04-10T05:37:06;9.40;67.90
67141;DHT22;54058;52.010;5.546;2023-04-10T05:39:33;9.50;67.90
67141;DHT22;54058;52.010;5.546;2023-04-10T05:41:58;9.50;67.90
67141;DHT22;54058;52.010;5.546;2023-04-10T05:44:26;9.60;67.90
67141;DHT22;54058;52.010;5.546;2023-04-10T05:46:51;9.60;67.80
67141;DHT22;54058;52.010;5.546;2023-04-10T05:49:17;9.70;67.70
67141;DHT22;54058;52.010;5.546;2023-04-10T05:51:42;9.80;67.80
67141;DHT22;54058;52.010;5.546;2023-04-10T05:54:08;9.80;67.80
67141;DHT22;54058;52.010;5.546;2023-04-10T05:56:33;9.90;67.80
67141;DHT22;54058;52.010;5.546;2023-04-10T05:58:59;9.90;67.60
67141;DHT22;54058;52.010;5.546;2023-04-10T06:01:25;10.00;67.70
67141;DHT22;54058;52.010;5.546;2023-04-10T06:03:51;10.10;67.70
67141;DHT22;54058;52.010;5.546;2023-04-10T06:06:16;10.20;67.70
67141;DHT22;54058;52.010;5.546;2023-04-10T06:08:42;10.30;67.70
67141;DHT22;54058;52.010;5.546;2023-04-10T06:11:08;10.30;67.50
67141;DHT22;54058;52.010;5.546;2023-04-10T06:13:33;10.30;67.40
67141;DHT22;54058;52.010;5.546;2023-04-10T06:15:59;10.40;67.50
67141;DHT22;54058;52.010;5.546;2023-04-10T06:18:25;10.50;67.60
67141;DHT22;54058;52.010;5.546;2023-04-10T06:20:50;10.60;67.60
67141;DHT22;54058;52.010;5.546;2023-04-10T06:23:16;10.60;67.30
67141;DHT22;54058;52.010;5.546;2023-04-10T06:25:42;10.70;67.30
67141;DHT22;54058;52.010;5.546;2023-04-10T06:28:08;10.80;67.50
67141;DHT22;54058;52.010;5.546;2023-04-10T06:30:33;10.80;67.20
67141;DHT22;54058;52.010;5.546;2023-04-10T06:33:01;10.90;67.00
67141;DHT22;54058;52.010;5.546;2023-04-10T06:35:27;11.00;66.90
67141;DHT22;54058;52.010;5.546;2023-04-10T06:37:52;11.10;67.10
67141;DHT22;54058;52.010;5.546;2023-04-10T06:40:18;11.10;66.80
67141;DHT22;54058;52.010;5.546;2023-04-10T06:42:43;11.20;66.70
67141;DHT22;54058;52.010;5.546;2023-04-10T06:45:09;11.30;66.70
67141;DHT22;54058;52.010;5.546;2023-04-10T06:47:35;11.40;66.50
67141;DHT22;54058;52.010;5.546;2023-04-10T06:50:01;11.50;66.50
67141;DHT22;54058;52.010;5.546;2023-04-10T06:52:26;11.60;66.70
67141;DHT22;54058;52.010;5.546;2023-04-10T06:54:52;11.70;66.60
67141;DHT22;54058;52.010;5.546;2023-04-10T06:57:17;11.80;66.30
67141;DHT22;54058;52.010;5.546;2023-04-10T06:59:43;11.80;66.10
67141;DHT22;54058;52.010;5.546;2023-04-10T07:02:09;11.80;66.00
67141;DHT22;54058;52.010;5.546;2023-04-10T07:04:36;11.90;65.70
67141;DHT22;54058;52.010;5.546;2023-04-10T07:07:02;11.90;65.70
67141;DHT22;54058;52.010;5.546;2023-04-10T07:09:29;12.00;65.80
67141;DHT22;54058;52.010;5.546;2023-04-10T07:11:55;12.10;66.10
67141;DHT22;54058;52.010;5.546;2023-04-10T07:14:21;12.10;65.60
67141;DHT22;54058;52.010;5.546;2023-04-10T07:16:47;12.20;65.50
67141;DHT22;54058;52.010;5.546;2023-04-10T07:19:13;12.20;65.80
67141;DHT22;54058;52.010;5.546;2023-04-10T07:21:39;12.30;65.80
67141;DHT22;54058;52.010;5.546;2023-04-10T07:24:04;12.30;65.50
67141;DHT22;54058;52.010;5.546;2023-04-10T07:26:30;12.40;65.40
67141;DHT22;54058;52.010;5.546;2023-04-10T07:28:56;12.40;65.30
67141;DHT22;54058;52.010;5.546;2023-04-10T07:31:21;12.50;65.50
67141;DHT22;54058;52.010;5.546;2023-04-10T07:33:47;12.50;64.50
67141;DHT22;54058;52.010;5.546;2023-04-10T07:36:13;12.60;65.50
67141;DHT22;54058;52.010;5.546;2023-04-10T07:38:39;12.70;65.20
67141;DHT22;54058;52.010;5.546;2023-04-10T07:41:06;12.70;65.30
67141;DHT22;54058;52.010;5.546;2023-04-10T07:43:31;12.80;65.10
67141;DHT22;54058;52.010;5.546;2023-04-10T07:45:57;12.90;65.30
67141;DHT22;54058;52.010;5.546;2023-04-10T07:48:23;13.00;65.40
67141;DHT22;54058;52.010;5.546;2023-04-10T07:50:48;13.10;64.90
67141;DHT22;54058;52.010;5.546;2023-04-10T07:53:14;13.30;65.40
67141;DHT22;54058;52.010;5.546;2023-04-10T07:55:42;13.50;65.00
67141;DHT22;54058;52.010;5.546;2023-04-10T07:58:08;13.80;65.20
67141;DHT22;54058;52.010;5.546;2023-04-10T08:00:34;14.20;65.20
67141;DHT22;54058;52.010;5.546;2023-04-10T08:03:03;14.40;64.50
67141;DHT22;54058;52.010;5.546;2023-04-10T08:05:30;14.60;64.60
67141;DHT22;54058;52.010;5.546;2023-04-10T08:08:09;14.70;65.40
67141;DHT22;54058;52.010;5.546;2023-04-10T08:10:37;14.80;63.70
67141;DHT22;54058;52.010;5.546;2023-04-10T08:13:04;14.80;65.10
67141;DHT22;54058;52.010;5.546;2023-04-10T08:15:30;14.80;64.80
67141;DHT22;54058;52.010;5.546;2023-04-10T08:17:55;14.80;65.30
67141;DHT22;54058;52.010;5.546;2023-04-10T08:20:21;14.80;65.20
67141;DHT22;54058;52.010;5.546;2023-04-10T08:22:47;14.80;65.40
67141;DHT22;54058;52.010;5.546;2023-04-10T08:25:13;14.80;65.30
67141;DHT22;54058;52.010;5.546;2023-04-10T08:27:38;14.80;64.50
67141;DHT22;54058;52.010;5.546;2023-04-10T08:30:04;14.70;64.30
67141;DHT22;54058;52.010;5.546;2023-04-10T08:32:30;14.60;64.70
67141;DHT22;54058;52.010;5.546;2023-04-10T08:34:55;14.60;65.40
67141;DHT22;54058;52.010;5.546;2023-04-10T08:37:21;14.80;65.10
67141;DHT22;54058;52.010;5.546;2023-04-10T08:39:47;14.80;64.80
67141;DHT22;54058;52.010;5.546;2023-04-10T08:42:13;14.80;63.80
67141;DHT22;54058;52.010;5.546;2023-04-10T08:44:38;14.80;64.30
67141;DHT22;54058;52.010;5.546;2023-04-10T08:47:07;14.90;64.60
67141;DHT22;54058;52.010;5.546;2023-04-10T08:52:07;15.20;59.90
67141;DHT22;54058;52.010;5.546;2023-04-10T08:54:36;15.20;64.20
67141;DHT22;54058;52.010;5.546;2023-04-10T08:57:03;15.10;63.80
67141;DHT22;54058;52.010;5.546;2023-04-10T08:59:31;15.00;63.60
67141;DHT22;54058;52.010;5.546;2023-04-10T09:01:57;15.00;63.80
67141;DHT22;54058;52.010;5.546;2023-04-10T09:04:24;14.90;63.60
67141;DHT22;54058;52.010;5.546;2023-04-10T09:06:50;14.80;63.30
67141;DHT22;54058;52.010;5.546;2023-04-10T09:09:16;14.80;63.80
67141;DHT22;54058;52.010;5.546;2023-04-10T09:14:36;14.90;63.60
67141;DHT22;54058;52.010;5.546;2023-04-10T09:17:24;15.00;62.20
67141;DHT22;54058;52.010;5.546;2023-04-10T09:19:51;15.00;62.00
67141;DHT22;54058;52.010;5.546;2023-04-10T09:22:29;15.00;63.60
67141;DHT22;54058;52.010;5.546;2023-04-10T09:24:55;15.00;62.70
67141;DHT22;54058;52.010;5.546;2023-04-10T09:27:32;14.90;57.70
67141;DHT22;54058;52.010;5.546;2023-04-10T09:30:00;14.80;59.00
67141;DHT22;54058;52.010;5.546;2023-04-10T09:32:52;14.70;62.30
67141;DHT22;54058;52.010;5.546;2023-04-10T09:35:19;14.60;60.40
67141;DHT22;54058;52.010;5.546;2023-04-10T09:37:44;14.50;62.40
67141;DHT22;54058;52.010;5.546;2023-04-10T09:40:21;14.40;62.30
67141;DHT22;54058;52.010;5.546;2023-04-10T09:42:48;14.40;62.30
67141;DHT22;54058;52.010;5.546;2023-04-10T09:45:14;14.40;62.70
67141;DHT22;54058;52.010;5.546;2023-04-10T09:48:03;14.50;62.80
67141;DHT22;54058;52.010;5.546;2023-04-10T09:50:37;14.50;60.90
67141;DHT22;54058;52.010;5.546;2023-04-10T09:53:03;14.50;61.40
67141;DHT22;54058;52.010;5.546;2023-04-10T09:55:29;14.50;62.20
67141;DHT22;54058;52.010;5.546;2023-04-10T09:57:56;14.60;62.30
67141;DHT22;54058;52.010;5.546;2023-04-10T10:00:23;14.60;62.50
67141;DHT22;54058;52.010;5.546;2023-04-10T10:02:50;14.70;62.40
67141;DHT22;54058;52.010;5.546;2023-04-10T10:05:16;14.70;62.00
67141;DHT22;54058;52.010;5.546;2023-04-10T10:07:43;14.70;61.90
67141;DHT22;54058;52.010;5.546;2023-04-10T10:10:11;14.80;61.80
67141;DHT22;54058;52.010;5.546;2023-04-10T10:12:44;14.80;62.10
67141;DHT22;54058;52.010;5.546;2023-04-10T10:15:50;14.80;61.40
67141;DHT22;54058;52.010;5.546;2023-04-10T10:21:13;14.90;61.30
67141;DHT22;54058;52.010;5.546;2023-04-10T10:23:41;15.00;61.90
67141;DHT22;54058;52.010;5.546;2023-04-10T10:26:09;15.10;61.80
67141;DHT22;54058;52.010;5.546;2023-04-10T10:28:35;15.10;61.20
67141;DHT22;54058;52.010;5.546;2023-04-10T10:31:04;15.10;61.00
67141;DHT22;54058;52.010;5.546;2023-04-10T10:33:32;15.30;61.70
67141;DHT22;54058;52.010;5.546;2023-04-10T10:36:00;15.40;61.20
67141;DHT22;54058;52.010;5.546;2023-04-10T10:38:27;15.50;61.40
67141;DHT22;54058;52.010;5.546;2023-04-10T10:41:08;15.50;58.80
67141;DHT22;54058;52.010;5.546;2023-04-10T10:43:46;15.60;60.60
67141;DHT22;54058;52.010;5.546;2023-04-10T10:46:29;15.70;60.70
67141;DHT22;54058;52.010;5.546;2023-04-10T10:48:57;15.80;59.90
67141;DHT22;54058;52.010;5.546;2023-04-10T10:51:45;15.90;60.90
67141;DHT22;54058;52.010;5.546;2023-04-10T10:54:38;16.20;60.30
67141;DHT22;54058;52.010;5.546;2023-04-10T11:08:13;16.90;59.90
67141;DHT22;54058;52.010;5.546;2023-04-10T11:11:10;17.00;60.80
67141;DHT22;54058;52.010;5.546;2023-04-10T11:13:38;17.20;57.20
67141;DHT22;54058;52.010;5.546;2023-04-10T11:16:06;17.30;60.60
67141;DHT22;54058;52.010;5.546;2023-04-10T11:21:19;17.40;59.50
67141;DHT22;54058;52.010;5.546;2023-04-10T11:31:40;17.40;59.60
67141;DHT22;54058;52.010;5.546;2023-04-10T11:34:08;17.40;60.20
67141;DHT22;54058;52.010;5.546;2023-04-10T11:36:38;17.50;60.20
67141;DHT22;54058;52.010;5.546;2023-04-10T11:39:09;17.50;60.00
67141;DHT22;54058;52.010;5.546;2023-04-10T11:41:48;17.50;59.30
67141;DHT22;54058;52.010;5.546;2023-04-10T11:44:35;17.50;59.30
67141;DHT22;54058;52.010;5.546;2023-04-10T11:47:00;17.60;58.00
67141;DHT22;54058;52.010;5.546;2023-04-10T11:49:30;17.60;59.80
67141;DHT22;54058;52.010;5.546;2023-04-10T11:51:57;17.60;60.00
67141;DHT22;54058;52.010;5.546;2023-04-10T11:54:24;17.70;60.60
67141;DHT22;54058;52.010;5.546;2023-04-10T11:57:06;17.80;60.50
67141;DHT22;54058;52.010;5.546;2023-04-10T11:59:36;17.90;58.80
67141;DHT22;54058;52.010;5.546;2023-04-10T12:02:10;17.90;60.00
67141;DHT22;54058;52.010;5.546;2023-04-10T12:04:39;17.90;59.90
67141;DHT22;54058;52.010;5.546;2023-04-10T12:07:05;18.10;60.10
67141;DHT22;54058;52.010;5.546;2023-04-10T12:09:31;18.20;60.00
67141;DHT22;54058;52.010;5.546;2023-04-10T12:12:04;18.20;60.10
67141;DHT22;54058;52.010;5.546;2023-04-10T12:14:41;18.30;59.40
67141;DHT22;54058;52.010;5.546;2023-04-10T12:17:08;18.40;58.60
67141;DHT22;54058;52.010;5.546;2023-04-10T12:19:35;18.40;59.70
67141;DHT22;54058;52.010;5.546;2023-04-10T12:22:01;18.50;59.40
67141;DHT22;54058;52.010;5.546;2023-04-10T12:24:43;18.50;59.50
67141;DHT22;54058;52.010;5.546;2023-04-10T12:27:29;18.40;57.60
67141;DHT22;54058;52.010;5.546;2023-04-10T12:29:56;18.30;57.70
67141;DHT22;54058;52.010;5.546;2023-04-10T12:32:23;18.30;59.60
67141;DHT22;54058;52.010;5.546;2023-04-10T12:34:50;18.30;59.60
67141;DHT22;54058;52.010;5.546;2023-04-10T12:37:16;18.40;59.70
67141;DHT22;54058;52.010;5.546;2023-04-10T12:39:41;18.40;59.50
67141;DHT22;54058;52.010;5.546;2023-04-10T12:42:15;18.50;59.40
67141;DHT22;54058;52.010;5.546;2023-04-10T12:44:55;18.50;59.10
67141;DHT22;54058;52.010;5.546;2023-04-10T12:47:22;18.50;58.00
67141;DHT22;54058;52.010;5.546;2023-04-10T12:50:08;18.40;59.00
67141;DHT22;54058;52.010;5.546;2023-04-10T12:52:36;18.30;56.10
67141;DHT22;54058;52.010;5.546;2023-04-10T12:55:16;18.10;59.20
67141;DHT22;54058;52.010;5.546;2023-04-10T12:57:44;18.00;58.10
67141;DHT22;54058;52.010;5.546;2023-04-10T13:00:15;18.00;59.30
67141;DHT22;54058;52.010;5.546;2023-04-10T13:02:43;17.80;59.10
67141;DHT22;54058;52.010;5.546;2023-04-10T13:05:10;17.70;58.40
67141;DHT22;54058;52.010;5.546;2023-04-10T13:07:36;17.60;58.90
67141;DHT22;54058;52.010;5.546;2023-04-10T13:10:02;17.50;58.90
67141;DHT22;54058;52.010;5.546;2023-04-10T13:12:29;17.40;59.10
67141;DHT22;54058;52.010;5.546;2023-04-10T13:14:55;17.30;59.00
67141;DHT22;54058;52.010;5.546;2023-04-10T13:17:24;17.20;59.10
67141;DHT22;54058;52.010;5.546;2023-04-10T13:19:50;17.10;58.90
67141;DHT22;54058;52.010;5.546;2023-04-10T13:22:16;17.10;58.70
67141;DHT22;54058;52.010;5.546;2023-04-10T13:24:42;17.00;59.30
67141;DHT22;54058;52.010;5.546;2023-04-10T13:27:08;17.00;58.70
67141;DHT22;54058;52.010;5.546;2023-04-10T13:29:40;16.90;58.70
67141;DHT22;54058;52.010;5.546;2023-04-10T13:32:06;16.90;58.60
67141;DHT22;54058;52.010;5.546;2023-04-10T13:34:32;16.80;58.90
67141;DHT22;54058;52.010;5.546;2023-04-10T13:36:58;16.90;59.00
67141;DHT22;54058;52.010;5.546;2023-04-10T13:39:29;16.80;58.90
67141;DHT22;54058;52.010;5.546;2023-04-10T13:41:56;16.80;58.80
67141;DHT22;54058;52.010;5.546;2023-04-10T13:44:22;16.80;58.60
67141;DHT22;54058;52.010;5.546;2023-04-10T13:46:47;16.70;58.80
67141;DHT22;54058;52.010;5.546;2023-04-10T13:49:13;16.70;58.80
67141;DHT22;54058;52.010;5.546;2023-04-10T13:51:43;16.70;59.00
67141;DHT22;54058;52.010;5.546;2023-04-10T13:54:09;16.60;59.20
67141;DHT22;54058;52.010;5.546;2023-04-10T13:56:35;16.50;59.20
67141;DHT22;54058;52.010;5.546;2023-04-10T13:59:01;16.50;59.40
67141;DHT22;54058;52.010;5.546;2023-04-10T14:01:26;16.50;59.60
67141;DHT22;54058;52.010;5.546;2023-04-10T14:03:52;16.50;59.30
67141;DHT22;54058;52.010;5.546;2023-04-10T14:06:18;16.60;59.60
67141;DHT22;54058;52.010;5.546;2023-04-10T14:08:44;16.70;59.50
67141;DHT22;54058;52.010;5.546;2023-04-10T14:11:09;16.70;59.60
67141;DHT22;54058;52.010;5.546;2023-04-10T14:13:35;16.80;59.60
67141;DHT22;54058;52.010;5.546;2023-04-10T14:16:00;16.80;59.70
67141;DHT22;54058;52.010;5.546;2023-04-10T14:18:28;16.80;59.70
67141;DHT22;54058;52.010;5.546;2023-04-10T14:20:53;16.90;59.80
67141;DHT22;54058;52.010;5.546;2023-04-10T14:23:19;16.90;59.70
67141;DHT22;54058;52.010;5.546;2023-04-10T14:25:47;16.80;59.60
67141;DHT22;54058;52.010;5.546;2023-04-10T14:28:13;16.80;59.70
67141;DHT22;54058;52.010;5.546;2023-04-10T14:30:45;16.70;59.10
67141;DHT22;54058;52.010;5.546;2023-04-10T14:33:13;16.60;60.20
67141;DHT22;54058;52.010;5.546;2023-04-10T14:35:38;16.50;60.50
67141;DHT22;54058;52.010;5.546;2023-04-10T14:38:04;16.30;61.20
67141;DHT22;54058;52.010;5.546;2023-04-10T14:40:30;16.20;61.10
67141;DHT22;54058;52.010;5.546;2023-04-10T14:42:56;16.10;61.30
67141;DHT22;54058;52.010;5.546;2023-04-10T14:45:21;16.00;61.80
67141;DHT22;54058;52.010;5.546;2023-04-10T14:47:47;15.80;62.10
67141;DHT22;54058;52.010;5.546;2023-04-10T14:50:12;15.70;62.30
67141;DHT22;54058;52.010;5.546;2023-04-10T14:52:38;15.60;62.60
67141;DHT22;54058;52.010;5.546;2023-04-10T14:55:04;15.50;63.00
67141;DHT22;54058;52.010;5.546;2023-04-10T14:57:30;15.50;63.20
67141;DHT22;54058;52.010;5.546;2023-04-10T14:59:56;15.40;63.30
67141;DHT22;54058;52.010;5.546;2023-04-10T15:02:21;15.30;63.50
67141;DHT22;54058;52.010;5.546;2023-04-10T15:04:47;15.20;63.50
67141;DHT22;54058;52.010;5.546;2023-04-10T15:07:13;15.10;63.60
67141;DHT22;54058;52.010;5.546;2023-04-10T15:09:38;15.10;63.80
67141;DHT22;54058;52.010;5.546;2023-04-10T15:12:05;15.10;64.10
67141;DHT22;54058;52.010;5.546;2023-04-10T15:14:31;15.00;64.00
67141;DHT22;54058;52.010;5.546;2023-04-10T15:16:57;15.00;64.20
67141;DHT22;54058;52.010;5.546;2023-04-10T15:19:22;15.00;64.30
67141;DHT22;54058;52.010;5.546;2023-04-10T15:21:48;14.90;64.40
67141;DHT22;54058;52.010;5.546;2023-04-10T15:24:14;14.90;64.90
67141;DHT22;54058;52.010;5.546;2023-04-10T15:26:43;14.80;64.80
67141;DHT22;54058;52.010;5.546;2023-04-10T15:29:10;14.70;65.10
67141;DHT22;54058;52.010;5.546;2023-04-10T15:31:36;14.70;65.20
67141;DHT22;54058;52.010;5.546;2023-04-10T15:34:02;14.60;65.10
67141;DHT22;54058;52.010;5.546;2023-04-10T15:36:27;14.60;65.20
67141;DHT22;54058;52.010;5.546;2023-04-10T15:38:54;14.60;65.40
67141;DHT22;54058;52.010;5.546;2023-04-10T15:41:20;14.50;65.50
67141;DHT22;54058;52.010;5.546;2023-04-10T15:43:45;14.50;65.40
67141;DHT22;54058;52.010;5.546;2023-04-10T15:46:11;14.50;65.80
67141;DHT22;54058;52.010;5.546;2023-04-10T15:48:38;14.40;65.70
67141;DHT22;54058;52.010;5.546;2023-04-10T15:51:04;14.40;65.70
67141;DHT22;54058;52.010;5.546;2023-04-10T15:53:31;14.40;65.80
67141;DHT22;54058;52.010;5.546;2023-04-10T15:55:56;14.40;65.90
67141;DHT22;54058;52.010;5.546;2023-04-10T15:58:22;14.40;65.80
67141;DHT22;54058;52.010;5.546;2023-04-10T16:00:47;14.40;65.80
67141;DHT22;54058;52.010;5.546;2023-04-10T16:03:13;14.40;66.00
67141;DHT22;54058;52.010;5.546;2023-04-10T16:05:39;14.30;66.00
67141;DHT22;54058;52.010;5.546;2023-04-10T16:08:05;14.30;65.90
67141;DHT22;54058;52.010;5.546;2023-04-10T16:10:30;14.40;66.10
67141;DHT22;54058;52.010;5.546;2023-04-10T16:12:56;14.40;66.00
67141;DHT22;54058;52.010;5.546;2023-04-10T16:15:27;14.40;66.10